sensor_id;sensor_type;location;lat;lon;timestamp;temperature;humidity
28171;DHT22;15458;53.346;-1.688;2023-12-07T00:00:07;2.70;99.90
28171;DHT22;15458;53.346;-1.688;2023-12-07T00:02:33;2.70;99.90
28171;DHT22;15458;53.346;-1.688;2023-12-07T00:04:58;2.80;99.90
28171;DHT22;15458;53.346;-1.688;2023-12-07T00:07:24;2.80;99.90
28171;DHT22;15458;53.346;-1.688;2023-12-07T00:09:49;2.80;99.90
28171;DHT22;15458;53.346;-1.688;2023-12-07T00:12:15;2.80;99.90
28171;DHT22;15458;53.346;-1.688;2023-12-07T00:14:41;2.80;99.90
28171;DHT22;15458;53.346;-1.688;2023-12-07T00:17:07;2.80;99.90
28171;DHT22;15458;53.346;-1.688;2023-12-07T00:19:32;2.80;99.90
28171;DHT22;15458;53.346;-1.688;2023-12-07T00:21:58;2.80;99.90
28171;DHT22;15458;53.346;-1.688;2023-12-07T00:24:24;2.80;99.90
28171;DHT22;15458;53.346;-1.688;2023-12-07T00:26:50;2.90;99.90
28171;DHT22;15458;53.346;-1.688;2023-12-07T00:29:15;2.90;99.90
28171;DHT22;15458;53.346;-1.688;2023-12-07T00:31:41;2.90;99.90
28171;DHT22;15458;53.346;-1.688;2023-12-07T00:34:07;2.90;99.90
28171;DHT22;15458;53.346;-1.688;2023-12-07T00:36:35;2.90;99.90
28171;DHT22;15458;53.346;-1.688;2023-12-07T00:39:01;2.90;99.90
28171;DHT22;15458;53.346;-1.688;2023-12-07T00:41:26;2.90;99.90
28171;DHT22;15458;53.346;-1.688;2023-12-07T00:43:52;3.00;99.90
28171;DHT22;15458;53.346;-1.688;2023-12-07T00:46:18;3.00;99.90
28171;DHT22;15458;53.346;-1.688;2023-12-07T00:48:43;3.00;99.90
28171;DHT22;15458;53.346;-1.688;2023-12-07T00:51:09;3.00;99.90
28171;DHT22;15458;53.346;-1.688;2023-12-07T00:53:35;3.00;99.90
28171;DHT22;15458;53.346;-1.688;2023-12-07T00:56:03;3.00;99.90
28171;DHT22;15458;53.346;-1.688;2023-12-07T00:58:29;3.00;99.90
28171;DHT22;15458;53.346;-1.688;2023-12-07T01:00:55;3.00;99.90
28171;DHT22;15458;53.346;-1.688;2023-12-07T01:03:20;3.10;99.90
28171;DHT22;15458;53.346;-1.688;2023-12-07T01:05:46;3.10;99.90
28171;DHT22;15458;53.346;-1.688;2023-12-07T01:08:12;3.00;99.90
28171;DHT22;15458;53.346;-1.688;2023-12-07T01:10:37;3.10;99.90
28171;DHT22;15458;53.346;-1.688;2023-12-07T01:13:03;3.10;99.90
28171;DHT22;15458;53.346;-1.688;2023-12-07T01:15:29;3.10;99.90
28171;DHT22;15458;53.346;-1.688;2023-12-07T01:17:55;3.10;99.90
28171;DHT22;15458;53.346;-1.688;2023-12-07T01:20:20;3.10;99.90
28171;DHT22;15458;53.346;-1.688;2023-12-07T01:22:46;3.10;99.90
28171;DHT22;15458;53.346;-1.688;2023-12-07T01:25:12;3.20;99.90
28171;DHT22;15458;53.346;-1.688;2023-12-07T01:27:42;3.20;99.90
28171;DHT22;15458;53.346;-1.688;2023-12-07T01:30:08;3.20;99.90
28171;DHT22;15458;53.346;-1.688;2023-12-07T01:32:33;3.20;99.90
28171;DHT22;15458;53.346;-1.688;2023-12-07T01:34:59;3.20;99.90
28171;DHT22;15458;53.346;-1.688;2023-12-07T01:37:25;3.20;99.90
28171;DHT22;15458;53.346;-1.688;2023-12-07T01:39:52;3.20;99.90
28171;DHT22;15458;53.346;-1.688;2023-12-07T01:42:18;3.20;99.90
28171;DHT22;15458;53.346;-1.688;2023-12-07T01:44:44;3.20;99.90
28171;DHT22;15458;53.346;-1.688;2023-12-07T01:47:10;3.20;99.90
28171;DHT22;15458;53.346;-1.688;2023-12-07T01:49:36;3.20;99.90
28171;DHT22;15458;53.346;-1.688;2023-12-07T01:52:02;3.20;99.90
28171;DHT22;15458;53.346;-1.688;2023-12-07T01:54:29;3.20;99.90
28171;DHT22;15458;53.346;-1.688;2023-12-07T01:56:55;3.30;99.90
28171;DHT22;15458;53.346;-1.688;2023-12-07T01:59:21;3.20;99.90
28171;DHT22;15458;53.346;-1.688;2023-12-07T02:01:47;3.20;99.90
28171;DHT22;15458;53.346;-1.688;2023-12-07T02:04:13;3.20;99.90
28171;DHT22;15458;53.346;-1.688;2023-12-07T02:06:39;3.30;99.90
28171;DHT22;15458;53.346;-1.688;2023-12-07T02:09:04;3.30;99.90
28171;DHT22;15458;53.346;-1.688;2023-12-07T02:11:31;3.30;99.90
28171;DHT22;15458;53.346;-1.688;2023-12-07T02:13:57;3.30;99.90
28171;DHT22;15458;53.346;-1.688;2023-12-07T02:16:45;3.30;99.90
28171;DHT22;15458;53.346;-1.688;2023-12-07T02:22:24;3.30;99.90
28171;DHT22;15458;53.346;-1.688;2023-12-07T02:27:43;3.40;99.90
28171;DHT22;15458;53.346;-1.688;2023-12-07T02:30:12;3.40;99.90
28171;DHT22;15458;53.346;-1.688;2023-12-07T02:32:39;3.40;99.90
28171;DHT22;15458;53.346;-1.688;2023-12-07T02:35:06;3.40;99.90
28171;DHT22;15458;53.346;-1.688;2023-12-07T02:37:40;3.50;99.90
28171;DHT22;15458;53.346;-1.688;2023-12-07T02:40:07;3.50;99.90
28171;DHT22;15458;53.346;-1.688;2023-12-07T02:42:40;3.50;99.90
28171;DHT22;15458;53.346;-1.688;2023-12-07T02:45:08;3.50;99.90
28171;DHT22;15458;53.346;-1.688;2023-12-07T02:47:34;3.50;99.90
28171;DHT22;15458;53.346;-1.688;2023-12-07T02:50:00;3.50;99.90
28171;DHT22;15458;53.346;-1.688;2023-12-07T02:52:26;3.50;99.90
28171;DHT22;15458;53.346;-1.688;2023-12-07T02:54:51;3.50;99.90
28171;DHT22;15458;53.346;-1.688;2023-12-07T02:57:17;3.50;99.90
28171;DHT22;15458;53.346;-1.688;2023-12-07T02:59:43;3.50;99.90
28171;DHT22;15458;53.346;-1.688;2023-12-07T03:02:08;3.50;99.90
28171;DHT22;15458;53.346;-1.688;2023-12-07T03:04:34;3.50;99.90
28171;DHT22;15458;53.346;-1.688;2023-12-07T03:07:00;3.60;99.90
28171;DHT22;15458;53.346;-1.688;2023-12-07T03:09:25;3.60;99.90
28171;DHT22;15458;53.346;-1.688;2023-12-07T03:11:51;3.60;99.90
28171;DHT22;15458;53.346;-1.688;2023-12-07T03:14:17;3.60;99.90
28171;DHT22;15458;53.346;-1.688;2023-12-07T03:16:42;3.60;99.90
28171;DHT22;15458;53.346;-1.688;2023-12-07T03:19:08;3.60;99.90
28171;DHT22;15458;53.346;-1.688;2023-12-07T03:21:34;3.60;99.90
28171;DHT22;15458;53.346;-1.688;2023-12-07T03:24:04;3.60;99.90
28171;DHT22;15458;53.346;-1.688;2023-12-07T03:26:29;3.60;99.90
28171;DHT22;15458;53.346;-1.688;2023-12-07T03:28:55;3.60;99.90
28171;DHT22;15458;53.346;-1.688;2023-12-07T03:31:21;3.60;99.90
28171;DHT22;15458;53.346;-1.688;2023-12-07T03:33:46;3.60;99.90
28171;DHT22;15458;53.346;-1.688;2023-12-07T03:36:12;3.60;99.90
28171;DHT22;15458;53.346;-1.688;2023-12-07T03:38:38;3.60;99.90
28171;DHT22;15458;53.346;-1.688;2023-12-07T03:41:03;3.60;99.90
28171;DHT22;15458;53.346;-1.688;2023-12-07T03:43:29;3.60;99.90
28171;DHT22;15458;53.346;-1.688;2023-12-07T03:45:55;3.60;99.90
28171;DHT22;15458;53.346;-1.688;2023-12-07T03:48:20;3.60;99.90
28171;DHT22;15458;53.346;-1.688;2023-12-07T03:50:46;3.60;99.90
28171;DHT22;15458;53.346;-1.688;2023-12-07T03:53:12;3.60;99.90
28171;DHT22;15458;53.346;-1.688;2023-12-07T03:55:38;3.60;99.90
28171;DHT22;15458;53.346;-1.688;2023-12-07T03:58:04;3.60;99.90
28171;DHT22;15458;53.346;-1.688;2023-12-07T04:00:33;3.70;99.90
28171;DHT22;15458;53.346;-1.688;2023-12-07T04:02:59;3.60;99.90
28171;DHT22;15458;53.346;-1.688;2023-12-07T04:05:24;3.70;99.90
28171;DHT22;15458;53.346;-1.688;2023-12-07T04:07:50;3.70;99.90
28171;DHT22;15458;53.346;-1.688;2023-12-07T04:10:16;3.70;99.90
28171;DHT22;15458;53.346;-1.688;2023-12-07T04:12:41;3.70;99.90
28171;DHT22;15458;53.346;-1.688;2023-12-07T04:15:07;3.70;99.90
28171;DHT22;15458;53.346;-1.688;2023-12-07T04:17:33;3.70;99.90
28171;DHT22;15458;53.346;-1.688;2023-12-07T04:19:59;3.70;99.90
28171;DHT22;15458;53.346;-1.688;2023-12-07T04:22:24;3.70;99.90
28171;DHT22;15458;53.346;-1.688;2023-12-07T04:24:50;3.70;99.90
28171;DHT22;15458;53.346;-1.688;2023-12-07T04:27:16;3.70;99.90
28171;DHT22;15458;53.346;-1.688;2023-12-07T04:29:41;3.70;99.90
28171;DHT22;15458;53.346;-1.688;2023-12-07T04:32:07;3.70;99.90
28171;DHT22;15458;53.346;-1.688;2023-12-07T04:34:33;3.70;99.90
28171;DHT22;15458;53.346;-1.688;2023-12-07T04:36:59;3.70;99.90
28171;DHT22;15458;53.346;-1.688;2023-12-07T04:39:25;3.70;99.90
28171;DHT22;15458;53.346;-1.688;2023-12-07T04:41:51;3.70;99.90
28171;DHT22;15458;53.346;-1.688;2023-12-07T04:44:17;3.70;99.90
28171;DHT22;15458;53.346;-1.688;2023-12-07T04:46:43;3.70;99.90
28171;DHT22;15458;53.346;-1.688;2023-12-07T04:49:08;3.70;99.90
28171;DHT22;15458;53.346;-1.688;2023-12-07T04:51:34;3.70;99.90
28171;DHT22;15458;53.346;-1.688;2023-12-07T04:54:00;3.70;99.90
28171;DHT22;15458;53.346;-1.688;2023-12-07T04:56:26;3.70;99.90
28171;DHT22;15458;53.346;-1.688;2023-12-07T04:58:52;3.70;99.90
28171;DHT22;15458;53.346;-1.688;2023-12-07T05:01:17;3.70;99.90
28171;DHT22;15458;53.346;-1.688;2023-12-07T05:03:45;3.70;99.90
28171;DHT22;15458;53.346;-1.688;2023-12-07T05:06:10;3.70;99.90
28171;DHT22;15458;53.346;-1.688;2023-12-07T05:08:38;3.70;99.90
28171;DHT22;15458;53.346;-1.688;2023-12-07T05:11:04;3.70;99.90
28171;DHT22;15458;53.346;-1.688;2023-12-07T05:13:30;3.70;99.90
28171;DHT22;15458;53.346;-1.688;2023-12-07T05:15:56;3.70;99.90
28171;DHT22;15458;53.346;-1.688;2023-12-07T05:18:22;3.70;99.90
28171;DHT22;15458;53.346;-1.688;2023-12-07T05:20:48;3.60;99.90
28171;DHT22;15458;53.346;-1.688;2023-12-07T05:23:13;3.70;99.90
28171;DHT22;15458;53.346;-1.688;2023-12-07T05:25:39;3.70;99.90
28171;DHT22;15458;53.346;-1.688;2023-12-07T05:28:05;3.70;99.90
28171;DHT22;15458;53.346;-1.688;2023-12-07T05:30:30;3.70;99.90
28171;DHT22;15458;53.346;-1.688;2023-12-07T05:32:56;3.70;99.90
28171;DHT22;15458;53.346;-1.688;2023-12-07T05:35:22;3.70;99.90
28171;DHT22;15458;53.346;-1.688;2023-12-07T05:37:49;3.70;99.90
28171;DHT22;15458;53.346;-1.688;2023-12-07T05:40:15;3.70;99.90
28171;DHT22;15458;53.346;-1.688;2023-12-07T05:42:41;3.70;99.90
28171;DHT22;15458;53.346;-1.688;2023-12-07T05:45:07;3.60;99.90
28171;DHT22;15458;53.346;-1.688;2023-12-07T05:47:35;3.70;99.90
28171;DHT22;15458;53.346;-1.688;2023-12-07T05:50:01;3.70;99.90
28171;DHT22;15458;53.346;-1.688;2023-12-07T05:52:29;3.70;99.90
28171;DHT22;15458;53.346;-1.688;2023-12-07T05:54:54;3.60;99.90
28171;DHT22;15458;53.346;-1.688;2023-12-07T05:57:20;3.70;99.90
28171;DHT22;15458;53.346;-1.688;2023-12-07T05:59:46;3.70;99.90
28171;DHT22;15458;53.346;-1.688;2023-12-07T06:02:11;3.70;99.90
28171;DHT22;15458;53.346;-1.688;2023-12-07T06:04:37;3.70;99.90
28171;DHT22;15458;53.346;-1.688;2023-12-07T06:07:03;3.70;99.90
28171;DHT22;15458;53.346;-1.688;2023-12-07T06:09:29;3.70;99.90
28171;DHT22;15458;53.346;-1.688;2023-12-07T06:11:55;3.60;99.90
28171;DHT22;15458;53.346;-1.688;2023-12-07T06:14:21;3.70;99.90
28171;DHT22;15458;53.346;-1.688;2023-12-07T06:16:48;3.70;99.90
28171;DHT22;15458;53.346;-1.688;2023-12-07T06:19:14;3.70;99.90
28171;DHT22;15458;53.346;-1.688;2023-12-07T06:21:40;3.70;99.90
28171;DHT22;15458;53.346;-1.688;2023-12-07T06:24:06;3.70;99.90
28171;DHT22;15458;53.346;-1.688;2023-12-07T06:26:32;3.70;99.90
28171;DHT22;15458;53.346;-1.688;2023-12-07T06:28:58;3.70;99.90
28171;DHT22;15458;53.346;-1.688;2023-12-07T06:31:24;3.70;99.90
28171;DHT22;15458;53.346;-1.688;2023-12-07T06:33:50;3.70;99.90
28171;DHT22;15458;53.346;-1.688;2023-12-07T06:36:22;3.70;99.90
28171;DHT22;15458;53.346;-1.688;2023-12-07T06:38:49;3.70;99.90
28171;DHT22;15458;53.346;-1.688;2023-12-07T06:41:15;3.70;99.90
28171;DHT22;15458;53.346;-1.688;2023-12-07T06:43:41;3.70;99.90
28171;DHT22;15458;53.346;-1.688;2023-12-07T06:46:10;3.70;99.90
28171;DHT22;15458;53.346;-1.688;2023-12-07T06:48:39;3.70;99.90
28171;DHT22;15458;53.346;-1.688;2023-12-07T06:51:08;3.80;99.90
28171;DHT22;15458;53.346;-1.688;2023-12-07T06:53:34;3.80;99.90
28171;DHT22;15458;53.346;-1.688;2023-12-07T06:55:59;3.80;99.90
28171;DHT22;15458;53.346;-1.688;2023-12-07T06:58:25;3.80;99.90
28171;DHT22;15458;53.346;-1.688;2023-12-07T07:00:52;3.80;99.90
28171;DHT22;15458;53.346;-1.688;2023-12-07T07:03:19;3.80;99.90
28171;DHT22;15458;53.346;-1.688;2023-12-07T07:05:44;3.90;99.90
28171;DHT22;15458;53.346;-1.688;2023-12-07T07:08:10;3.90;99.90
28171;DHT22;15458;53.346;-1.688;2023-12-07T07:10:36;3.90;99.90
28171;DHT22;15458;53.346;-1.688;2023-12-07T07:13:03;3.90;99.90
28171;DHT22;15458;53.346;-1.688;2023-12-07T07:15:34;3.90;99.90
28171;DHT22;15458;53.346;-1.688;2023-12-07T07:18:01;3.90;99.90
28171;DHT22;15458;53.346;-1.688;2023-12-07T07:20:28;3.90;99.90
28171;DHT22;15458;53.346;-1.688;2023-12-07T07:22:55;4.00;99.90
28171;DHT22;15458;53.346;-1.688;2023-12-07T07:25:22;4.00;99.90
28171;DHT22;15458;53.346;-1.688;2023-12-07T07:27:48;4.00;99.90
28171;DHT22;15458;53.346;-1.688;2023-12-07T07:30:21;4.00;99.90
28171;DHT22;15458;53.346;-1.688;2023-12-07T07:32:47;4.00;99.90
28171;DHT22;15458;53.346;-1.688;2023-12-07T07:35:24;4.10;99.90
28171;DHT22;15458;53.346;-1.688;2023-12-07T07:37:55;4.10;99.90
28171;DHT22;15458;53.346;-1.688;2023-12-07T07:40:21;4.10;99.90
28171;DHT22;15458;53.346;-1.688;2023-12-07T07:42:50;4.20;99.90
28171;DHT22;15458;53.346;-1.688;2023-12-07T07:45:16;4.10;99.90
28171;DHT22;15458;53.346;-1.688;2023-12-07T07:47:42;4.20;99.90
28171;DHT22;15458;53.346;-1.688;2023-12-07T07:50:09;4.20;99.90
28171;DHT22;15458;53.346;-1.688;2023-12-07T07:52:36;4.20;99.90
28171;DHT22;15458;53.346;-1.688;2023-12-07T07:55:03;4.20;99.90
28171;DHT22;15458;53.346;-1.688;2023-12-07T07:57:30;4.20;99.90
28171;DHT22;15458;53.346;-1.688;2023-12-07T07:59:57;4.30;99.90
28171;DHT22;15458;53.346;-1.688;2023-12-07T08:02:23;4.30;99.90
28171;DHT22;15458;53.346;-1.688;2023-12-07T08:04:49;4.30;99.90
28171;DHT22;15458;53.346;-1.688;2023-12-07T08:07:15;4.30;99.90
28171;DHT22;15458;53.346;-1.688;2023-12-07T08:09:41;4.30;99.90
28171;DHT22;15458;53.346;-1.688;2023-12-07T08:12:06;4.30;99.90
28171;DHT22;15458;53.346;-1.688;2023-12-07T08:14:35;4.30;99.90
28171;DHT22;15458;53.346;-1.688;2023-12-07T08:17:02;4.30;99.90
28171;DHT22;15458;53.346;-1.688;2023-12-07T08:19:28;4.40;99.90
28171;DHT22;15458;53.346;-1.688;2023-12-07T08:21:54;4.40;99.90
28171;DHT22;15458;53.346;-1.688;2023-12-07T08:24:19;4.50;99.90
28171;DHT22;15458;53.346;-1.688;2023-12-07T08:26:45;4.50;99.90
28171;DHT22;15458;53.346;-1.688;2023-12-07T08:29:11;4.50;99.90
28171;DHT22;15458;53.346;-1.688;2023-12-07T08:31:40;4.60;99.90
28171;DHT22;15458;53.346;-1.688;2023-12-07T08:34:06;4.60;99.90
28171;DHT22;15458;53.346;-1.688;2023-12-07T08:36:31;4.60;99.90
28171;DHT22;15458;53.346;-1.688;2023-12-07T08:38:57;4.60;99.90
28171;DHT22;15458;53.346;-1.688;2023-12-07T08:41:23;4.60;99.90
28171;DHT22;15458;53.346;-1.688;2023-12-07T08:43:49;4.60;99.90
28171;DHT22;15458;53.346;-1.688;2023-12-07T08:46:14;4.60;99.90
28171;DHT22;15458;53.346;-1.688;2023-12-07T08:48:40;4.60;99.90
28171;DHT22;15458;53.346;-1.688;2023-12-07T08:51:06;4.60;99.90
28171;DHT22;15458;53.346;-1.688;2023-12-07T08:53:34;4.60;99.90
28171;DHT22;15458;53.346;-1.688;2023-12-07T08:56:01;4.70;99.90
28171;DHT22;15458;53.346;-1.688;2023-12-07T08:58:27;4.70;99.90
28171;DHT22;15458;53.346;-1.688;2023-12-07T09:00:53;4.70;99.90
28171;DHT22;15458;53.346;-1.688;2023-12-07T09:03:19;4.70;99.90
28171;DHT22;15458;53.346;-1.688;2023-12-07T09:05:44;4.70;99.90
28171;DHT22;15458;53.346;-1.688;2023-12-07T09:08:10;4.70;99.90
28171;DHT22;15458;53.346;-1.688;2023-12-07T09:10:36;4.70;99.90
28171;DHT22;15458;53.346;-1.688;2023-12-07T09:13:02;4.70;99.90
28171;DHT22;15458;53.346;-1.688;2023-12-07T09:15:27;4.70;99.90
28171;DHT22;15458;53.346;-1.688;2023-12-07T09:17:57;4.70;99.90
28171;DHT22;15458;53.346;-1.688;2023-12-07T09:20:23;4.70;99.90
28171;DHT22;15458;53.346;-1.688;2023-12-07T09:22:50;4.80;99.90
28171;DHT22;15458;53.346;-1.688;2023-12-07T09:25:16;4.80;99.90
28171;DHT22;15458;53.346;-1.688;2023-12-07T09:27:43;4.80;99.90
28171;DHT22;15458;53.346;-1.688;2023-12-07T09:30:09;4.80;99.90
28171;DHT22;15458;53.346;-1.688;2023-12-07T09:32:39;4.80;99.90
28171;DHT22;15458;53.346;-1.688;2023-12-07T09:35:06;4.80;99.90
28171;DHT22;15458;53.346;-1.688;2023-12-07T09:37:33;4.90;99.90
28171;DHT22;15458;53.346;-1.688;2023-12-07T09:40:00;4.90;99.90
28171;DHT22;15458;53.346;-1.688;2023-12-07T09:42:26;4.90;99.90
28171;DHT22;15458;53.346;-1.688;2023-12-07T09:44:53;4.90;99.90
28171;DHT22;15458;53.346;-1.688;2023-12-07T09:47:19;4.90;99.90
28171;DHT22;15458;53.346;-1.688;2023-12-07T09:49:45;4.90;99.90
28171;DHT22;15458;53.346;-1.688;2023-12-07T09:52:11;4.90;99.90
28171;DHT22;15458;53.346;-1.688;2023-12-07T09:54:41;4.90;99.90
28171;DHT22;15458;53.346;-1.688;2023-12-07T09:57:07;4.90;99.90
28171;DHT22;15458;53.346;-1.688;2023-12-07T09:59:35;4.90;99.90
28171;DHT22;15458;53.346;-1.688;2023-12-07T10:02:02;4.90;99.90
28171;DHT22;15458;53.346;-1.688;2023-12-07T10:04:27;5.00;99.90
28171;DHT22;15458;53.346;-1.688;2023-12-07T10:06:53;5.00;99.90
28171;DHT22;15458;53.346;-1.688;2023-12-07T10:09:19;5.00;99.90
28171;DHT22;15458;53.346;-1.688;2023-12-07T10:11:47;5.00;99.90
28171;DHT22;15458;53.346;-1.688;2023-12-07T10:14:13;5.00;99.90
28171;DHT22;15458;53.346;-1.688;2023-12-07T10:16:52;5.00;99.90
28171;DHT22;15458;53.346;-1.688;2023-12-07T10:19:19;5.00;99.90
28171;DHT22;15458;53.346;-1.688;2023-12-07T10:21:51;5.00;99.90
28171;DHT22;15458;53.346;-1.688;2023-12-07T10:24:22;5.00;99.90
28171;DHT22;15458;53.346;-1.688;2023-12-07T10:26:55;5.00;99.90
28171;DHT22;15458;53.346;-1.688;2023-12-07T10:29:22;5.00;99.90
28171;DHT22;15458;53.346;-1.688;2023-12-07T10:31:49;5.10;99.90
28171;DHT22;15458;53.346;-1.688;2023-12-07T10:34:18;5.00;99.90
28171;DHT22;15458;53.346;-1.688;2023-12-07T10:36:46;5.10;99.90
28171;DHT22;15458;53.346;-1.688;2023-12-07T10:39:13;5.10;99.90
28171;DHT22;15458;53.346;-1.688;2023-12-07T10:41:42;5.10;99.90
28171;DHT22;15458;53.346;-1.688;2023-12-07T10:44:13;5.10;99.90
28171;DHT22;15458;53.346;-1.688;2023-12-07T10:46:39;5.10;99.90
28171;DHT22;15458;53.346;-1.688;2023-12-07T10:49:08;5.10;99.90
28171;DHT22;15458;53.346;-1.688;2023-12-07T10:51:51;5.10;99.90
28171;DHT22;15458;53.346;-1.688;2023-12-07T10:54:30;5.10;99.90
28171;DHT22;15458;53.346;-1.688;2023-12-07T10:57:24;5.10;99.90
28171;DHT22;15458;53.346;-1.688;2023-12-07T10:59:52;5.10;99.90
28171;DHT22;15458;53.346;-1.688;2023-12-07T11:02:21;5.10;99.90
28171;DHT22;15458;53.346;-1.688;2023-12-07T11:04:47;5.20;99.90
28171;DHT22;15458;53.346;-1.688;2023-12-07T11:07:16;5.10;99.90
28171;DHT22;15458;53.346;-1.688;2023-12-07T11:09:48;5.20;99.90
28171;DHT22;15458;53.346;-1.688;2023-12-07T11:12:33;5.20;99.90
28171;DHT22;15458;53.346;-1.688;2023-12-07T11:15:02;5.20;99.90
28171;DHT22;15458;53.346;-1.688;2023-12-07T11:17:27;5.30;99.90
28171;DHT22;15458;53.346;-1.688;2023-12-07T11:19:54;5.30;99.90
28171;DHT22;15458;53.346;-1.688;2023-12-07T11:22:20;5.30;99.90
28171;DHT22;15458;53.346;-1.688;2023-12-07T11:24:53;5.30;99.90
28171;DHT22;15458;53.346;-1.688;2023-12-07T11:27:20;5.40;99.90
28171;DHT22;15458;53.346;-1.688;2023-12-07T11:29:49;5.40;99.90
28171;DHT22;15458;53.346;-1.688;2023-12-07T11:32:17;5.40;99.90
28171;DHT22;15458;53.346;-1.688;2023-12-07T11:34:43;5.40;99.90
28171;DHT22;15458;53.346;-1.688;2023-12-07T11:37:11;5.40;99.90
28171;DHT22;15458;53.346;-1.688;2023-12-07T11:39:41;5.40;99.90
28171;DHT22;15458;53.346;-1.688;2023-12-07T11:42:15;5.50;99.90
28171;DHT22;15458;53.346;-1.688;2023-12-07T11:44:47;5.50;99.90
28171;DHT22;15458;53.346;-1.688;2023-12-07T11:47:19;5.50;99.90
28171;DHT22;15458;53.346;-1.688;2023-12-07T11:49:46;5.50;99.90
28171;DHT22;15458;53.346;-1.688;2023-12-07T11:52:19;5.50;99.90
28171;DHT22;15458;53.346;-1.688;2023-12-07T11:54:49;5.50;99.90
28171;DHT22;15458;53.346;-1.688;2023-12-07T11:57:17;5.50;99.90
28171;DHT22;15458;53.346;-1.688;2023-12-07T11:59:46;5.50;99.90
28171;DHT22;15458;53.346;-1.688;2023-12-07T12:02:15;5.50;99.90
28171;DHT22;15458;53.346;-1.688;2023-12-07T12:04:41;5.60;99.90
28171;DHT22;15458;53.346;-1.688;2023-12-07T12:07:07;5.60;99.90
28171;DHT22;15458;53.346;-1.688;2023-12-07T12:09:35;5.60;99.90
28171;DHT22;15458;53.346;-1.688;2023-12-07T12:12:02;5.60;99.90
28171;DHT22;15458;53.346;-1.688;2023-12-07T12:14:29;5.60;99.90
28171;DHT22;15458;53.346;-1.688;2023-12-07T12:16:55;5.60;99.90
28171;DHT22;15458;53.346;-1.688;2023-12-07T12:19:22;5.60;99.90
28171;DHT22;15458;53.346;-1.688;2023-12-07T12:21:49;5.60;99.90
28171;DHT22;15458;53.346;-1.688;2023-12-07T12:24:15;5.60;99.90
28171;DHT22;15458;53.346;-1.688;2023-12-07T12:26:42;5.60;99.90
28171;DHT22;15458;53.346;-1.688;2023-12-07T12:29:10;5.60;99.90
28171;DHT22;15458;53.346;-1.688;2023-12-07T12:31:40;5.60;99.90
28171;DHT22;15458;53.346;-1.688;2023-12-07T12:34:06;5.60;99.90
28171;DHT22;15458;53.346;-1.688;2023-12-07T12:36:42;5.60;99.90
28171;DHT22;15458;53.346;-1.688;2023-12-07T12:39:13;5.60;99.90
28171;DHT22;15458;53.346;-1.688;2023-12-07T12:41:39;5.60;99.90
28171;DHT22;15458;53.346;-1.688;2023-12-07T12:44:05;5.60;99.90
28171;DHT22;15458;53.346;-1.688;2023-12-07T12:46:34;5.60;99.90
28171;DHT22;15458;53.346;-1.688;2023-12-07T12:49:00;5.60;99.90
28171;DHT22;15458;53.346;-1.688;2023-12-07T12:51:28;5.60;99.90
28171;DHT22;15458;53.346;-1.688;2023-12-07T12:54:00;5.60;99.90
28171;DHT22;15458;53.346;-1.688;2023-12-07T12:56:27;5.60;99.90
28171;DHT22;15458;53.346;-1.688;2023-12-07T12:58:54;5.60;99.90
28171;DHT22;15458;53.346;-1.688;2023-12-07T13:01:23;5.60;99.90
28171;DHT22;15458;53.346;-1.688;2023-12-07T13:03:49;5.60;99.90
28171;DHT22;15458;53.346;-1.688;2023-12-07T13:06:22;5.60;99.90
28171;DHT22;15458;53.346;-1.688;2023-12-07T13:08:48;5.60;99.90
28171;DHT22;15458;53.346;-1.688;2023-12-07T13:11:18;5.60;99.90
28171;DHT22;15458;53.346;-1.688;2023-12-07T13:13:45;5.60;99.90
28171;DHT22;15458;53.346;-1.688;2023-12-07T13:16:13;5.60;99.90
28171;DHT22;15458;53.346;-1.688;2023-12-07T13:18:40;5.60;99.90
28171;DHT22;15458;53.346;-1.688;2023-12-07T13:21:06;5.60;99.90
28171;DHT22;15458;53.346;-1.688;2023-12-07T13:23:32;5.50;99.90
28171;DHT22;15458;53.346;-1.688;2023-12-07T13:25:57;5.50;99.90
28171;DHT22;15458;53.346;-1.688;2023-12-07T13:28:23;5.60;99.90
28171;DHT22;15458;53.346;-1.688;2023-12-07T13:30:49;5.50;99.90
28171;DHT22;15458;53.346;-1.688;2023-12-07T13:33:15;5.50;99.90
28171;DHT22;15458;53.346;-1.688;2023-12-07T13:35:40;5.60;99.90
28171;DHT22;15458;53.346;-1.688;2023-12-07T13:38:06;5.50;99.90
28171;DHT22;15458;53.346;-1.688;2023-12-07T13:40:34;5.50;99.90
28171;DHT22;15458;53.346;-1.688;2023-12-07T13:43:02;5.50;99.90
28171;DHT22;15458;53.346;-1.688;2023-12-07T13:45:34;5.50;99.90
28171;DHT22;15458;53.346;-1.688;2023-12-07T13:48:01;5.60;99.90
28171;DHT22;15458;53.346;-1.688;2023-12-07T13:50:27;5.60;99.90
28171;DHT22;15458;53.346;-1.688;2023-12-07T13:52:53;5.60;99.90
28171;DHT22;15458;53.346;-1.688;2023-12-07T13:55:19;5.60;99.90
28171;DHT22;15458;53.346;-1.688;2023-12-07T13:57:45;5.60;99.90
28171;DHT22;15458;53.346;-1.688;2023-12-07T14:00:11;5.50;99.90
28171;DHT22;15458;53.346;-1.688;2023-12-07T14:02:39;5.50;99.90
28171;DHT22;15458;53.346;-1.688;2023-12-07T14:05:07;5.50;99.90
28171;DHT22;15458;53.346;-1.688;2023-12-07T14:07:33;5.50;99.90
28171;DHT22;15458;53.346;-1.688;2023-12-07T14:09:58;5.50;99.90
28171;DHT22;15458;53.346;-1.688;2023-12-07T14:12:27;5.50;99.90
28171;DHT22;15458;53.346;-1.688;2023-12-07T14:14:53;5.50;99.90
28171;DHT22;15458;53.346;-1.688;2023-12-07T14:17:23;5.50;99.90
28171;DHT22;15458;53.346;-1.688;2023-12-07T14:19:49;5.50;99.90
28171;DHT22;15458;53.346;-1.688;2023-12-07T14:22:18;5.50;99.90
28171;DHT22;15458;53.346;-1.688;2023-12-07T14:24:44;5.50;99.90
28171;DHT22;15458;53.346;-1.688;2023-12-07T14:27:12;5.50;99.90
28171;DHT22;15458;53.346;-1.688;2023-12-07T14:29:37;5.50;99.90
28171;DHT22;15458;53.346;-1.688;2023-12-07T14:32:03;5.50;99.90
28171;DHT22;15458;53.346;-1.688;2023-12-07T14:34:29;5.50;99.90
28171;DHT22;15458;53.346;-1.688;2023-12-07T14:36:55;5.50;99.90
28171;DHT22;15458;53.346;-1.688;2023-12-07T14:39:25;5.50;99.90
28171;DHT22;15458;53.346;-1.688;2023-12-07T14:41:56;5.50;99.90
28171;DHT22;15458;53.346;-1.688;2023-12-07T15:40:34;5.40;99.90
28171;DHT22;15458;53.346;-1.688;2023-12-07T15:43:00;5.40;99.90
28171;DHT22;15458;53.346;-1.688;2023-12-07T15:45:52;5.30;99.90
28171;DHT22;15458;53.346;-1.688;2023-12-07T15:48:18;5.40;99.90
28171;DHT22;15458;53.346;-1.688;2023-12-07T15:50:46;5.40;99.90
28171;DHT22;15458;53.346;-1.688;2023-12-07T15:53:12;5.40;99.90
28171;DHT22;15458;53.346;-1.688;2023-12-07T15:55:38;5.30;99.90
28171;DHT22;15458;53.346;-1.688;2023-12-07T15:58:04;5.30;99.90
28171;DHT22;15458;53.346;-1.688;2023-12-07T16:00:31;5.30;99.90
28171;DHT22;15458;53.346;-1.688;2023-12-07T16:02:57;5.30;99.90
28171;DHT22;15458;53.346;-1.688;2023-12-07T16:05:23;5.30;99.90
28171;DHT22;15458;53.346;-1.688;2023-12-07T16:07:51;5.30;99.90
28171;DHT22;15458;53.346;-1.688;2023-12-07T16:10:17;5.30;99.90
28171;DHT22;15458;53.346;-1.688;2023-12-07T16:12:43;5.30;99.90
28171;DHT22;15458;53.346;-1.688;2023-12-07T16:15:09;5.30;99.90
28171;DHT22;15458;53.346;-1.688;2023-12-07T16:17:35;5.30;99.90
28171;DHT22;15458;53.346;-1.688;2023-12-07T16:20:01;5.30;99.90
28171;DHT22;15458;53.346;-1.688;2023-12-07T16:22:27;5.30;99.90
28171;DHT22;15458;53.346;-1.688;2023-12-07T16:24:56;5.30;99.90
28171;DHT22;15458;53.346;-1.688;2023-12-07T16:27:24;5.30;99.90
28171;DHT22;15458;53.346;-1.688;2023-12-07T16:29:50;5.30;99.90